Home > Products > Valid Products > TAF

000
FTUS42 TJSJ 101125
TAFJMZ
TAF
TJMZ 101125Z 1012/1112 08005KT P6SM SKC
     FM101630 27010KT P6SM VCSH SCT030 BKN050
     FM102300 VRB05KT P6SM FEW030 FEW050
      AMD NOT SKED=



000
FTUS42 TJSJ 101125
TAFIST
TAF
TIST 101125Z 1012/1112 09005KT P6SM FEW022
     FM101300 12014G20KT P6SM SCT030
     FM102300 10006KT P6SM FEW025=



000
FTUS42 TJSJ 101125
TAFISX
TAF
TISX 101125Z 1012/1112 10011KT P6SM SCT022
     FM101300 11014G20KT P6SM SCT022 SCT050
     FM102300 08007KT P6SM FEW025=



000
FTUS42 TJSJ 101125
TAFNCM
TAF
TNCM 101125Z 1012/1112 11011KT P6SM FEW020
     FM101300 12013KT P6SM FEW018 SCT025
     FM102300 10010KT P6SM FEW018 FEW030=



000
FTUS42 TJSJ 101125
TAFKPK
TAF
TKPK 101125Z 1012/1112 07011KT P6SM FEW022
     FM101300 10015KT P6SM FEW020 SCT040
     FM102300 09009KT P6SM FEW022=



000
FTUS42 TJSJ 101125
TAFJPS
TAF
TJPS 101125Z 1012/1112 05005KT P6SM FEW030
     FM101300 15012KT P6SM FEW025 FEW040
     FM102300 07007KT P6SM SKC
      AMD NOT SKED TIL 110300=



000
FTUS42 TJSJ 101125
TAFNCM
TAF
TNCM 101125Z 1012/1112 11011KT P6SM FEW020
     FM101300 12013KT P6SM FEW018 SCT025
     FM102300 10010KT P6SM FEW018 FEW030=



000
FTUS42 TJSJ 101125
TAFIST
TAF
TIST 101125Z 1012/1112 09005KT P6SM FEW022
     FM101300 12014G20KT P6SM SCT030
     FM102300 10006KT P6SM FEW025=



000
FTUS42 TJSJ 101125
TAFJMZ
TAF
TJMZ 101125Z 1012/1112 08005KT P6SM SKC
     FM101630 27010KT P6SM VCSH SCT030 BKN050
     FM102300 VRB05KT P6SM FEW030 FEW050
      AMD NOT SKED=



000
FTUS42 TJSJ 101125
TAFJPS
TAF
TJPS 101125Z 1012/1112 05005KT P6SM FEW030
     FM101300 15012KT P6SM FEW025 FEW040
     FM102300 07007KT P6SM SKC
      AMD NOT SKED TIL 110300=



000
FTUS42 TJSJ 101125
TAFJBQ
TAF
TJBQ 101125Z 1012/1112 13005KT P6SM FEW021
     FM101430 06008KT P6SM FEW030 SCT050
     FM101800 05012KT P6SM VCSH SCT030 BKN040
     FM102300 11005KT P6SM SCT030 SCT050=



000
FTUS42 TJSJ 101125
TAFISX
TAF
TISX 101125Z 1012/1112 10011KT P6SM SCT022
     FM101300 11014G20KT P6SM SCT022 SCT050
     FM102300 08007KT P6SM FEW025=



000
FTUS42 TJSJ 101125
TAFJSJ
TAF
TJSJ 101125Z 1012/1112 14005KT P6SM FEW025
     FM101300 09015KT P6SM FEW030
     FM102300 10005KT P6SM FEW030=



000
FTUS42 TJSJ 100544
TAFKPK
TAF
TKPK 100544Z 1006/1106 08010KT P6SM VCSH SCT020 SCT040
     FM101300 10015KT P6SM FEW020 SCT040
     FM102300 09009KT P6SM FEW022
      AMD NOT SKED TIL 101100=



000
FTUS42 TJSJ 100544
TAFJSJ
TAF
TJSJ 100544Z 1006/1106 VRB03KT P6SM VCSH FEW022 SCT040
     FM101300 09015KT P6SM FEW030 SCT050
     FM102300 10005KT P6SM FEW030=



000
FTUS42 TJSJ 100544
TAFJPS
TAF
TJPS 100544Z 1006/1106 05005KT P6SM FEW030
     FM101300 15012KT P6SM FEW025 FEW040
     FM102300 07007KT P6SM SKC
      AMD NOT SKED 1012/1103=



000
FTUS42 TJSJ 100544
TAFISX
TAF
TISX 100544Z 1006/1106 07007KT P6SM VCSH SCT022 SCT045
     FM101300 11014G20KT P6SM SCT022 SCT050
     FM102300 08007KT P6SM FEW025=



000
FTUS42 TJSJ 100544
TAFNCM
TAF
TNCM 100544Z 1006/1106 11010KT P6SM VCSH SCT018 SCT035
     FM101300 12013KT P6SM FEW018 SCT025
     FM102300 10010KT P6SM FEW018 FEW030=



000
FTUS42 TJSJ 100544
TAFJBQ
TAF
TJBQ 100544Z 1006/1106 13005KT P6SM FEW021
     FM101430 06008KT P6SM FEW030 SCT050
     FM101800 05012KT P6SM VCSH SCT030 BKN040
     FM102300 11005KT P6SM SCT030 SCT050
      AMD NOT SKED TIL 101100=



000
FTUS42 TJSJ 100544
TAFJMZ
TAF
TJMZ 100544Z 1006/1106 08005KT P6SM SKC
     FM101630 27010KT P6SM VCSH SCT030 BKN050
     FM102300 VRB05KT P6SM FEW030 FEW050
      AMD NOT SKED=



000
FTUS42 TJSJ 100544
TAFIST
TAF
TIST 100544Z 1006/1106 09009KT P6SM FEW022
     FM101300 12014G20KT P6SM SCT030
     FM102300 10006KT P6SM FEW025=



000
FTUS42 TJSJ 100544
TAFJPS
TAF
TJPS 100544Z 1006/1106 05005KT P6SM FEW030
     FM101300 15012KT P6SM FEW025 FEW040
     FM102300 07007KT P6SM SKC
      AMD NOT SKED 1012/1103=



000
FTUS42 TJSJ 100544
TAFJSJ
TAF
TJSJ 100544Z 1006/1106 VRB03KT P6SM VCSH FEW022 SCT040
     FM101300 09015KT P6SM FEW030 SCT050
     FM102300 10005KT P6SM FEW030=



000
FTUS42 TJSJ 100544
TAFKPK
TAF
TKPK 100544Z 1006/1106 08010KT P6SM VCSH SCT020 SCT040
     FM101300 10015KT P6SM FEW020 SCT040
     FM102300 09009KT P6SM FEW022
      AMD NOT SKED TIL 101100=



000
FTUS42 TJSJ 100544
TAFJBQ
TAF
TJBQ 100544Z 1006/1106 13005KT P6SM FEW021
     FM101430 06008KT P6SM FEW030 SCT050
     FM101800 05012KT P6SM VCSH SCT030 BKN040
     FM102300 11005KT P6SM SCT030 SCT050
      AMD NOT SKED TIL 101100=



000
FTUS42 TJSJ 100544
TAFNCM
TAF
TNCM 100544Z 1006/1106 11010KT P6SM VCSH SCT018 SCT035
     FM101300 12013KT P6SM FEW018 SCT025
     FM102300 10010KT P6SM FEW018 FEW030=



000
FTUS42 TJSJ 100544
TAFISX
TAF
TISX 100544Z 1006/1106 07007KT P6SM VCSH SCT022 SCT045
     FM101300 11014G20KT P6SM SCT022 SCT050
     FM102300 08007KT P6SM FEW025=



000
FTUS42 TJSJ 100544
TAFIST
TAF
TIST 100544Z 1006/1106 09009KT P6SM FEW022
     FM101300 12014G20KT P6SM SCT030
     FM102300 10006KT P6SM FEW025=



000
FTUS42 TJSJ 100544
TAFJMZ
TAF
TJMZ 100544Z 1006/1106 08005KT P6SM SKC
     FM101630 27010KT P6SM VCSH SCT030 BKN050
     FM102300 VRB05KT P6SM FEW030 FEW050
      AMD NOT SKED=



000
FTUS42 TJSJ 092347
TAFJMZ
TAF
TJMZ 092347Z 1000/1024 VRB05KT P6SM FEW025
     FM101630 27010KT P6SM SCT030 BKN050
     FM102300 VRB05KT P6SM FEW030 FEW050
      AMD NOT SKED=



000
FTUS42 TJSJ 092347
TAFJBQ
TAF
TJBQ 092347Z 1000/1024 VRB05KT P6SM FEW021
     FM101430 06008KT P6SM FEW030 SCT050
     FM101800 05012KT P6SM VCSH SCT030 BKN040
     FM102300 11005KT P6SM SCT030 SCT050=



000
FTUS42 TJSJ 092347
TAFIST
TAF
TIST 092347Z 1000/1024 10009KT P6SM VCSH SCT025 SCT035 SCT060
     FM101300 12014KT P6SM SCT030
     FM102300 10006KT P6SM FEW025=



000
FTUS42 TJSJ 092347
TAFISX
TAF
TISX 092347Z 1000/1024 08007KT P6SM VCSH SCT025 SCT040 SCT060
     FM101300 11014G20KT P6SM SCT021 SCT050
     FM102300 06006KT P6SM FEW030=



000
FTUS42 TJSJ 092347
TAFKPK
TAF
TKPK 092347Z 1000/1024 09010KT P6SM SCT018 SCT022 SCT040
     FM101300 08015KT P6SM SCT020 SCT040
     FM102300 08009KT P6SM FEW018=



000
FTUS42 TJSJ 092347
TAFJPS
TAF
TJPS 092347Z 1000/1024 05005KT P6SM FEW025 SCT050
     FM101300 15012KT P6SM FEW025
     FM102300 06005KT P6SM FEW030
      AMD NOT SKED=



000
FTUS42 TJSJ 092347
TAFJSJ
TAF
TJSJ 092347Z 1000/1024 11007KT P6SM SCT025 SCT050
     FM101300 09015KT P6SM FEW030 SCT050
     FM102300 10005KT P6SM FEW030=



000
FTUS42 TJSJ 092347
TAFNCM
TAF
TNCM 092347Z 1000/1024 11010KT P6SM SCT018 SCT022 SCT035
     FM101300 12011KT P6SM SCT022
     FM102300 10010KT P6SM FEW018 FEW030=



000
FTUS42 TJSJ 092347
TAFNCM
TAF
TNCM 092347Z 1000/1024 11010KT P6SM SCT018 SCT022 SCT035
     FM101300 12011KT P6SM SCT022
     FM102300 10010KT P6SM FEW018 FEW030=



000
FTUS42 TJSJ 092347
TAFJBQ
TAF
TJBQ 092347Z 1000/1024 VRB05KT P6SM FEW021
     FM101430 06008KT P6SM FEW030 SCT050
     FM101800 05012KT P6SM VCSH SCT030 BKN040
     FM102300 11005KT P6SM SCT030 SCT050=



000
FTUS42 TJSJ 092347
TAFJPS
TAF
TJPS 092347Z 1000/1024 05005KT P6SM FEW025 SCT050
     FM101300 15012KT P6SM FEW025
     FM102300 06005KT P6SM FEW030
      AMD NOT SKED=



000
FTUS42 TJSJ 092347
TAFJSJ
TAF
TJSJ 092347Z 1000/1024 11007KT P6SM SCT025 SCT050
     FM101300 09015KT P6SM FEW030 SCT050
     FM102300 10005KT P6SM FEW030=



000
FTUS42 TJSJ 092347
TAFKPK
TAF
TKPK 092347Z 1000/1024 09010KT P6SM SCT018 SCT022 SCT040
     FM101300 08015KT P6SM SCT020 SCT040
     FM102300 08009KT P6SM FEW018=



000
FTUS42 TJSJ 092347
TAFIST
TAF
TIST 092347Z 1000/1024 10009KT P6SM VCSH SCT025 SCT035 SCT060
     FM101300 12014KT P6SM SCT030
     FM102300 10006KT P6SM FEW025=



000
FTUS42 TJSJ 092347
TAFJMZ
TAF
TJMZ 092347Z 1000/1024 VRB05KT P6SM FEW025
     FM101630 27010KT P6SM SCT030 BKN050
     FM102300 VRB05KT P6SM FEW030 FEW050
      AMD NOT SKED=



000
FTUS42 TJSJ 092347
TAFISX
TAF
TISX 092347Z 1000/1024 08007KT P6SM VCSH SCT025 SCT040 SCT060
     FM101300 11014G20KT P6SM SCT021 SCT050
     FM102300 06006KT P6SM FEW030=



000
FTUS42 TJSJ 091725
TAFKPK
TAF
TKPK 091725Z 0918/1018 10006KT P6SM VCSH SCT017 SCT040
      TEMPO 0918/0920 -SHRA BKN030
     FM092230 VRB06KT P6SM FEW025
     FM101300 10012KT P6SM SCT022=



000
FTUS42 TJSJ 091725
TAFIST
TAF
TIST 091725Z 0918/1018 13010KT P6SM FEW025
     FM092300 09008KT P6SM SCT025 SCT040
     FM101300 12012KT P6SM SCT022=



000
FTUS42 TJSJ 091725
TAFISX
TAF
TISX 091725Z 0918/1018 11011KT P6SM FEW022
     FM092300 VRB06KT P6SM VCSH SCT025 SCT040
     FM101300 11012KT P6SM SCT021 SCT050=



000
FTUS42 TJSJ 091725
TAFNCM
TAF
TNCM 091725Z 0918/1018 12009KT P6SM VCSH SCT020
      TEMPO 0918/0920 -SHRA BKN030
     FM092230 VRB06KT P6SM FEW025
     FM101300 11012KT P6SM SCT022=



000
FTUS42 TJSJ 091725
TAFJMZ
TAF
TJMZ 091725Z 0918/1018 27007KT P6SM SCT040
     FM092300 VRB05KT P6SM FEW025
     FM101630 27010KT P6SM SCT030 BKN050
      AMD NOT SKED=



000
FTUS42 TJSJ 091725
TAFJPS
TAF
TJPS 091725Z 0918/1018 06008KT P6SM FEW030
     FM092300 05005KT P6SM FEW025
     FM101300 13010G15KT P6SM FEW030 FEW050
      AMD NOT SKED=



000
FTUS42 TJSJ 091725
TAFJBQ
TAF
TJBQ 091725Z 0918/1018 04007KT P6SM SCT040
     FM092300 VRB06KT P6SM FEW025
     FM101430 03010KT P6SM FEW030 SCT050=



000
FTUS42 TJSJ 091725
TAFJSJ
TAF
TJSJ 091725Z 0918/1018 08012KT P6SM FEW030 SCT060
     FM092300 VRB05KT P6SM SCT025
     FM101300 15010KT P6SM FEW030 SCT050=



000
FTUS42 TJSJ 091125
TAFISX
TAF
TISX 091125Z 0912/1012 10008KT P6SM SCT022
     FM091300 11012KT P6SM SCT021 SCT050
     FM092300 VRB06KT P6SM VCSH SCT025 SCT040=



000
FTUS42 TJSJ 091125
TAFJBQ
TAF
TJBQ 091125Z 0912/1012 14006KT P6SM FEW030
     FM091430 03010KT P6SM FEW030 SCT050
     FM092300 VRB06KT P6SM FEW025=



000
FTUS42 TJSJ 091125
TAFJMZ
TAF
TJMZ 091125Z 0912/1012 VRB05KT P6SM SKC
     FM091630 27010KT P6SM SCT030 BKN050
     FM092300 VRB05KT P6SM FEW025
      AMD NOT SKED=



000
FTUS42 TJSJ 091125
TAFIST
TAF
TIST 091125Z 0912/1012 10008KT P6SM FEW025
     FM091300 12012KT P6SM SCT022
     FM092300 09008KT P6SM VCSH SCT025 SCT040=



000
FTUS42 TJSJ 091125
TAFJPS
TAF
TJPS 091125Z 0912/1012 04005KT P6SM FEW030
     FM091300 13010G15KT P6SM FEW030 FEW050
     FM092300 05005KT P6SM FEW025
      AMD NOT SKED 0912/1003=



000
FTUS42 TJSJ 091125
TAFJSJ
TAF
TJSJ 091125Z 0912/1012 VRB05KT P6SM FEW030
     FM091300 15010KT P6SM FEW030 SCT050
     FM092300 VRB05KT P6SM VCSH SCT025 SCT040=



000
FTUS42 TJSJ 091125
TAFNCM
TAF
TNCM 091125Z 0912/1012 10008KT P6SM FEW020
     FM091300 11012KT P6SM SCT022
     FM092230 VRB06KT P6SM FEW025=



000
FTUS42 TJSJ 091125
TAFKPK
TAF
TKPK 091125Z 0912/1012 09008KT P6SM FEW020
     FM091300 10012KT P6SM SCT022
     FM092230 VRB06KT P6SM FEW025=



000
FTUS42 TJSJ 090536
TAFKPK
TAF
TKPK 090536Z 0906/1006 10010KT P6SM FEW020
     FM091300 10012KT P6SM SCT022
      AMD NOT SKED TIL 091100=



000
FTUS42 TJSJ 090536
TAFNCM
TAF
TNCM 090536Z 0906/1006 11008KT P6SM FEW020
     FM091300 11011KT P6SM SCT022=



000
FTUS42 TJSJ 090536
TAFJPS
TAF
TJPS 090536Z 0906/1006 05005KT P6SM SKC
     FM091300 13010G15KT P6SM FEW030 FEW050
     FM092300 05005KT P6SM FEW025
      AMD NOT SKED 0912/1003=



000
FTUS42 TJSJ 090536
TAFISX
TAF
TISX 090536Z 0906/1006 VRB06KT P6SM FEW025 SCT040
     FM091300 11010KT P6SM FEW030 FEW050
     FM092300 VRB06KT P6SM VCSH SCT025 SCT040=



000
FTUS42 TJSJ 090536
TAFJMZ
TAF
TJMZ 090536Z 0906/1006 VRB05KT P6SM SKC
     FM091630 27010KT P6SM SCT030 BKN050
     FM092300 VRB05KT P6SM FEW025
      AMD NOT SKED=



000
FTUS42 TJSJ 090536
TAFJBQ
TAF
TJBQ 090536Z 0906/1006 VRB06KT P6SM SKC
     FM091430 03010KT P6SM FEW030 SCT050
     FM092300 VRB06KT P6SM FEW025
      AMD NOT SKED TIL 091100=



000
FTUS42 TJSJ 090536
TAFIST
TAF
TIST 090536Z 0906/1006 09008KT P6SM FEW025 SCT040
     FM091300 12010KT P6SM FEW030 FEW050
     FM092300 09008KT P6SM VCSH SCT025 SCT040=



000
FTUS42 TJSJ 090536
TAFJSJ
TAF
TJSJ 090536Z 0906/1006 VRB05KT P6SM SCT025
     FM091300 15010KT P6SM FEW030 SCT050
     FM092300 VRB05KT P6SM VCSH SCT025 SCT040=



000
FTUS42 TJSJ 090536
TAFISX
TAF
TISX 090536Z 0906/1006 VRB06KT P6SM FEW025 SCT040
     FM091300 11010KT P6SM FEW030 FEW050
     FM092300 VRB06KT P6SM VCSH SCT025 SCT040=



000
FTUS42 TJSJ 090536
TAFJMZ
TAF
TJMZ 090536Z 0906/1006 VRB05KT P6SM SKC
     FM091630 27010KT P6SM SCT030 BKN050
     FM092300 VRB05KT P6SM FEW025
      AMD NOT SKED=



000
FTUS42 TJSJ 090536
TAFNCM
TAF
TNCM 090536Z 0906/1006 11008KT P6SM FEW020
     FM091300 11011KT P6SM SCT022=



000
FTUS42 TJSJ 090536
TAFJPS
TAF
TJPS 090536Z 0906/1006 05005KT P6SM SKC
     FM091300 13010G15KT P6SM FEW030 FEW050
     FM092300 05005KT P6SM FEW025
      AMD NOT SKED 0912/1003=



000
FTUS42 TJSJ 090536
TAFIST
TAF
TIST 090536Z 0906/1006 09008KT P6SM FEW025 SCT040
     FM091300 12010KT P6SM FEW030 FEW050
     FM092300 09008KT P6SM VCSH SCT025 SCT040=



000
FTUS42 TJSJ 090536
TAFKPK
TAF
TKPK 090536Z 0906/1006 10010KT P6SM FEW020
     FM091300 10012KT P6SM SCT022
      AMD NOT SKED TIL 091100=



000
FTUS42 TJSJ 090536
TAFJSJ
TAF
TJSJ 090536Z 0906/1006 VRB05KT P6SM SCT025
     FM091300 15010KT P6SM FEW030 SCT050
     FM092300 VRB05KT P6SM VCSH SCT025 SCT040=



000
FTUS42 TJSJ 090536
TAFJBQ
TAF
TJBQ 090536Z 0906/1006 VRB06KT P6SM SKC
     FM091430 03010KT P6SM FEW030 SCT050
     FM092300 VRB06KT P6SM FEW025
      AMD NOT SKED TIL 091100=



000
FTUS42 TJSJ 082347
TAFJSJ
TAF
TJSJ 082347Z 0900/0924 VRB05KT P6SM FEW025 SCT080
     FM091400 09011KT P6SM SCT030
     FM092300 10008KT P6SM FEW025 SCT250=



000
FTUS42 TJSJ 082347
TAFISX
TAF
TISX 082347Z 0900/0924 09005KT P6SM SCT025
     FM091300 11013KT P6SM FEW020 SCT250
     FM092300 07006KT P6SM SCT025=



000
FTUS42 TJSJ 082347
TAFKPK
TAF
TKPK 082347Z 0900/0924 09010KT P6SM SCT018
     FM091800 09013KT P6SM SCT020 SCT030 SCT050
      AMD NOT SKED 0902/0911=



000
FTUS42 TJSJ 082347
TAFJMZ
TAF
TJMZ 082347Z 0900/0924 VRB05KT P6SM FEW025
     FM091500 27009KT P6SM SCT030 SCT040
     FM092300 06005KT P6SM FEW035
      AMD NOT SKED TIL 091500=



000
FTUS42 TJSJ 082347
TAFJPS
TAF
TJPS 082347Z 0900/0924 VRB04KT P6SM FEW025
     FM091500 15014KT P6SM FEW030 SCT060
     FM092300 05005KT P6SM FEW035
      AMD NOT SKED TIL 090300=



000
FTUS42 TJSJ 082347
TAFIST
TAF
TIST 082347Z 0900/0924 10006KT P6SM FEW025 FEW060
     FM091200 13012KT P6SM SCT020 SCT035
     FM092300 10007KT P6SM SCT020=



000
FTUS42 TJSJ 082347
TAFJSJ
TAF
TJSJ 082347Z 0900/0924 VRB05KT P6SM FEW025 SCT080
     FM091400 09011KT P6SM SCT030
     FM092300 10008KT P6SM FEW025 SCT250=



000
FTUS42 TJSJ 082347
TAFJBQ
TAF
TJBQ 082347Z 0900/0924 VRB05KT P6SM FEW020 FEW040
     FM091300 06010KT P6SM FEW025 SCT035 SCT040
     FM092300 VRB05KT P6SM FEW020
      AMD NOT SKED 0902/0911=



000
FTUS42 TJSJ 082347
TAFNCM
TAF
TNCM 082347Z 0900/0924 12011KT P6SM SCT018
     FM091800 13013KT P6SM SCT020 SCT030 SCT050=



000
FTUS42 TJSJ 082347
TAFISX
TAF
TISX 082347Z 0900/0924 09005KT P6SM SCT025
     FM091300 11013KT P6SM FEW020 SCT250
     FM092300 07006KT P6SM SCT025=



000
FTUS42 TJSJ 082347
TAFJBQ
TAF
TJBQ 082347Z 0900/0924 VRB05KT P6SM FEW020 FEW040
     FM091300 06010KT P6SM FEW025 SCT035 SCT040
     FM092300 VRB05KT P6SM FEW020
      AMD NOT SKED 0902/0911=



000
FTUS42 TJSJ 082347
TAFIST
TAF
TIST 082347Z 0900/0924 10006KT P6SM FEW025 FEW060
     FM091200 13012KT P6SM SCT020 SCT035
     FM092300 10007KT P6SM SCT020=



000
FTUS42 TJSJ 082347
TAFJPS
TAF
TJPS 082347Z 0900/0924 VRB04KT P6SM FEW025
     FM091500 15014KT P6SM FEW030 SCT060
     FM092300 05005KT P6SM FEW035
      AMD NOT SKED TIL 090300=



000
FTUS42 TJSJ 082347
TAFKPK
TAF
TKPK 082347Z 0900/0924 09010KT P6SM SCT018
     FM091800 09013KT P6SM SCT020 SCT030 SCT050
      AMD NOT SKED 0902/0911=



000
FTUS42 TJSJ 082347
TAFNCM
TAF
TNCM 082347Z 0900/0924 12011KT P6SM SCT018
     FM091800 13013KT P6SM SCT020 SCT030 SCT050=



000
FTUS42 TJSJ 082347
TAFJMZ
TAF
TJMZ 082347Z 0900/0924 VRB05KT P6SM FEW025
     FM091500 27009KT P6SM SCT030 SCT040
     FM092300 06005KT P6SM FEW035
      AMD NOT SKED TIL 091500=



000
FTUS42 TJSJ 081730
TAFJMZ
TAF
TJMZ 081730Z 0818/0918 27010KT P6SM FEW030 SCT050
     FM082300 VRB05KT P6SM FEW025
      AMD NOT SKED TIL 091500=



000
FTUS42 TJSJ 081730
TAFKPK
TAF
TKPK 081730Z 0818/0918 09010KT P6SM SCT021
      AMD NOT SKED 0902/0911=



000
FTUS42 TJSJ 081730
TAFJBQ
TAF
TJBQ 081730Z 0818/0918 02010KT P6SM FEW030 SCT050
     FM082300 VRB03KT P6SM FEW025
     FM091200 07006KT P6SM FEW250
      AMD NOT SKED 0902/0911=



000
FTUS42 TJSJ 081730
TAFIST
TAF
TIST 081730Z 0818/0918 12011KT P6SM FEW020
     FM082300 10006KT P6SM FEW025
     FM091200 13010KT P6SM FEW250=



000
FTUS42 TJSJ 081730
TAFJSJ
TAF
TJSJ 081730Z 0818/0918 16007KT P6SM FEW040 SCT050
     FM082300 VRB03KT P6SM FEW025
     FM091400 10006KT P6SM SCT030
     FM091500 09009KT P6SM SCT250=



000
FTUS42 TJSJ 081730
TAFISX
TAF
TISX 081730Z 0818/0918 12011KT P6SM FEW020
     FM082300 VRB05KT P6SM FEW025
     FM091200 11011KT P6SM FEW020 SCT250=



000
FTUS42 TJSJ 081730
TAFNCM
TAF
TNCM 081730Z 0818/0918 13011KT P6SM SCT020=



000
FTUS42 TJSJ 081730
TAFJPS
TAF
TJPS 081730Z 0818/0918 14010G15KT P6SM FEW030 SCT050
     FM082300 05005KT P6SM FEW025
     FM091500 16014KT P6SM SCT250
      AMD NOT SKED TIL 090300=



000
FTUS42 TJSJ 081725 AAA
TAFIST
TAF AMD
TIST 081725Z 0817/0912 13010KT P6SM SCT020
      TEMPO 0817/0820 BKN020
     FM082300 10008KT P6SM FEW025=



000
FTUS42 TJSJ 081725 AAA
TAFIST
TAF AMD
TIST 081725Z 0817/0912 13010KT P6SM SCT020
      TEMPO 0817/0820 BKN020
     FM082300 10008KT P6SM FEW025=



000
FTUS42 TJSJ 081602 AAB
TAFJSJ
TAF AMD
TJSJ 081602Z 0816/0912 33008KT P6SM SCT035
     FM081700 14010G18KT P6SM FEW030 FEW050
     FM082300 VRB03KT P6SM FEW025=



000
FTUS42 TJSJ 081415 AAA
TAFJSJ
TAF AMD
TJSJ 081415Z 0814/0912 01006KT P6SM FEW030
     FM081500 14010G18KT P6SM FEW030 FEW050
     FM082300 VRB03KT P6SM FEW025=



000
FTUS42 TJSJ 081135
TAFIST
TAF
TIST 081135Z 0812/0912 11008KT P6SM FEW025
     FM081300 13010KT P6SM FEW030 FEW500
     FM082300 10008KT P6SM FEW025=



000
FTUS42 TJSJ 081135
TAFJPS
TAF
TJPS 081135Z 0812/0912 05005KT P6SM FEW025
     FM081300 14010G15KT P6SM FEW030 FEW050
     FM082300 05005KT P6SM FEW025
      AMD NOT SKED 0812/0903=



000
FTUS42 TJSJ 081135
TAFJBQ
TAF
TJBQ 081135Z 0812/0912 VRB05KT P6SM SKC
     FM081530 02010KT P6SM FEW030 SCT050
     FM082300 VRB03KT P6SM FEW025=



000
FTUS42 TJSJ 081135
TAFKPK
TAF
TKPK 081135Z 0812/0912 09010KT P6SM SCT022=



000
FTUS42 TJSJ 081135
TAFNCM
TAF
TNCM 081135Z 0812/0912 12010KT P6SM SCT020=



000
FTUS42 TJSJ 081135
TAFJMZ
TAF
TJMZ 081135Z 0812/0912 VRB05KT P6SM SKC
     FM081630 27010KT P6SM FEW030 SCT050
     FM082300 VRB05KT P6SM FEW025
      AMD NOT SKED=



000
FTUS42 TJSJ 081135
TAFISX
TAF
TISX 081135Z 0812/0912 11008KT P6SM FEW025
     FM081300 12010KT P6SM FEW030 FEW050
     FM082300 VRB05KT P6SM FEW025=



000
FTUS42 TJSJ 081135
TAFJSJ
TAF
TJSJ 081135Z 0812/0912 VRB03KT P6SM FEW025
     FM081300 14010G18KT P6SM FEW030 FEW050
     FM082300 VRB03KT P6SM FEW025=



000
FTUS42 TJSJ 081135
TAFJMZ
TAF
TJMZ 081135Z 0812/0912 VRB05KT P6SM SKC
     FM081630 27010KT P6SM FEW030 SCT050
     FM082300 VRB05KT P6SM FEW025
      AMD NOT SKED=



000
FTUS42 TJSJ 081135
TAFISX
TAF
TISX 081135Z 0812/0912 11008KT P6SM FEW025
     FM081300 12010KT P6SM FEW030 FEW050
     FM082300 VRB05KT P6SM FEW025=



000
FTUS42 TJSJ 081135
TAFJPS
TAF
TJPS 081135Z 0812/0912 05005KT P6SM FEW025
     FM081300 14010G15KT P6SM FEW030 FEW050
     FM082300 05005KT P6SM FEW025
      AMD NOT SKED 0812/0903=



000
FTUS42 TJSJ 081135
TAFJBQ
TAF
TJBQ 081135Z 0812/0912 VRB05KT P6SM SKC
     FM081530 02010KT P6SM FEW030 SCT050
     FM082300 VRB03KT P6SM FEW025=



000
FTUS42 TJSJ 081135
TAFKPK
TAF
TKPK 081135Z 0812/0912 09010KT P6SM SCT022=



000
FTUS42 TJSJ 081135
TAFIST
TAF
TIST 081135Z 0812/0912 11008KT P6SM FEW025
     FM081300 13010KT P6SM FEW030 FEW500
     FM082300 10008KT P6SM FEW025=



000
FTUS42 TJSJ 081135
TAFJSJ
TAF
TJSJ 081135Z 0812/0912 VRB03KT P6SM FEW025
     FM081300 14010G18KT P6SM FEW030 FEW050
     FM082300 VRB03KT P6SM FEW025=



000
FTUS42 TJSJ 081135
TAFNCM
TAF
TNCM 081135Z 0812/0912 12010KT P6SM SCT020=



000
FTUS42 TJSJ 080538
TAFJSJ
TAF
TJSJ 080538Z 0806/0906 VRB03KT P6SM FEW025
     FM081300 14010G18KT P6SM FEW030 FEW050
     FM082300 VRB03KT P6SM FEW025=



000
FTUS42 TJSJ 080538
TAFNCM
TAF
TNCM 080538Z 0806/0906 11010KT P6SM FEW020=



000
FTUS42 TJSJ 080538
TAFISX
TAF
TISX 080538Z 0806/0906 VRB05KT P6SM FEW025
     FM081300 11010KT P6SM FEW030 FEW050
     FM082300 VRB05KT P6SM FEW025=



000
FTUS42 TJSJ 080538
TAFJMZ
TAF
TJMZ 080538Z 0806/0906 VRB05KT P6SM FEW025
     FM081630 27010KT P6SM FEW030 SCT050
     FM082300 VRB05KT P6SM FEW025
      AMD NOT SKED=



000
FTUS42 TJSJ 080538
TAFIST
TAF
TIST 080538Z 0806/0906 10008KT P6SM FEW025
     FM081300 12010KT P6SM FEW030 FEW500
     FM082300 10008KT P6SM FEW025=



000
FTUS42 TJSJ 080538
TAFJBQ
TAF
TJBQ 080538Z 0806/0906 VRB05KT P6SM FEW025
     FM081530 02010KT P6SM FEW030 SCT050
     FM082300 VRB03KT P6SM FEW025
      AMD NOT SKED TIL 081100=



000
FTUS42 TJSJ 080538
TAFJPS
TAF
TJPS 080538Z 0806/0906 05005KT P6SM FEW025
     FM081300 14010G15KT P6SM FEW030 FEW050
     FM082300 05005KT P6SM FEW025
      AMD NOT SKED 0812/0903=



000
FTUS42 TJSJ 080538
TAFKPK
TAF
TKPK 080538Z 0806/0906 09010KT P6SM FEW022
      AMD NOT SKED TIL 081100=



000
FTUS42 TJSJ 080538
TAFJMZ
TAF
TJMZ 080538Z 0806/0906 VRB05KT P6SM FEW025
     FM081630 27010KT P6SM FEW030 SCT050
     FM082300 VRB05KT P6SM FEW025
      AMD NOT SKED=



000
FTUS42 TJSJ 080538
TAFJPS
TAF
TJPS 080538Z 0806/0906 05005KT P6SM FEW025
     FM081300 14010G15KT P6SM FEW030 FEW050
     FM082300 05005KT P6SM FEW025
      AMD NOT SKED 0812/0903=



000
FTUS42 TJSJ 080538
TAFIST
TAF
TIST 080538Z 0806/0906 10008KT P6SM FEW025
     FM081300 12010KT P6SM FEW030 FEW500
     FM082300 10008KT P6SM FEW025=



000
FTUS42 TJSJ 080538
TAFNCM
TAF
TNCM 080538Z 0806/0906 11010KT P6SM FEW020=



000
FTUS42 TJSJ 080538
TAFKPK
TAF
TKPK 080538Z 0806/0906 09010KT P6SM FEW022
      AMD NOT SKED TIL 081100=



000
FTUS42 TJSJ 080538
TAFISX
TAF
TISX 080538Z 0806/0906 VRB05KT P6SM FEW025
     FM081300 11010KT P6SM FEW030 FEW050
     FM082300 VRB05KT P6SM FEW025=



000
FTUS42 TJSJ 080538
TAFJSJ
TAF
TJSJ 080538Z 0806/0906 VRB03KT P6SM FEW025
     FM081300 14010G18KT P6SM FEW030 FEW050
     FM082300 VRB03KT P6SM FEW025=



000
FTUS42 TJSJ 080538
TAFJBQ
TAF
TJBQ 080538Z 0806/0906 VRB05KT P6SM FEW025
     FM081530 02010KT P6SM FEW030 SCT050
     FM082300 VRB03KT P6SM FEW025
      AMD NOT SKED TIL 081100=



000
FTUS42 TJSJ 080300 AAA
TAFJPS
TAF AMD
TJPS 080300Z 0803/0824 VRB05KT P6SM FEW030
     FM081500 13012G18KT P6SM FEW030
     FM082330 09007KT P6SM FEW030
      AMD NOT SKED TIL 080300=



000
FTUS42 TJSJ 072337
TAFJMZ
TAF
TJMZ 072337Z 0800/0824 00000KT P6SM SKC
     FM081530 20010KT P6SM SCT040
     FM082200 06006KT P6SM SCT025 SCT040
      AMD NOT SKED TIL 081500=



000
FTUS42 TJSJ 072337
TAFJBQ
TAF
TJBQ 072337Z 0800/0824 VRB03KT P6SM SCT040
     FM081400 07010KT P6SM SCT035
     FM082300 09008KT P6SM SCT025
      AMD NOT SKED 0802/0811=



000
FTUS42 TJSJ 072337
TAFJSJ
TAF
TJSJ 072337Z 0800/0824 VRB04KT P6SM SKC
     FM081300 08012KT P6SM FEW030
     FM082200 10006KT P6SM SCT030=



000
FTUS42 TJSJ 072337
TAFNCM
TAF
TNCM 072337Z 0800/0824 11006KT P6SM FEW021
     FM081200 12008KT P6SM VCSH SCT020
     FM082300 06006KT P6SM FEW020=



000
FTUS42 TJSJ 072337
TAFJSJ
TAF
TJSJ 072337Z 0800/0824 VRB04KT P6SM SKC
     FM081300 08012KT P6SM FEW030
     FM082200 10006KT P6SM SCT030=



000
FTUS42 TJSJ 072337
TAFJPS
TAF
TJPS 072337Z 0800/0824 14010G15KT P6SM FEW030
     FM081500 13012G18KT P6SM FEW030
     FM082330 09007KT P6SM FEW030
      AMD NOT SKED TIL 080300=



000
FTUS42 TJSJ 072337
TAFJBQ
TAF
TJBQ 072337Z 0800/0824 VRB03KT P6SM SCT040
     FM081400 07010KT P6SM SCT035
     FM082300 09008KT P6SM SCT025
      AMD NOT SKED 0802/0811=



000
FTUS42 TJSJ 072337
TAFKPK
TAF
TKPK 072337Z 0800/0824 07010KT P6SM SCT018
     FM081200 09010KT P6SM VCSH SCT022
     FM082300 06006KT P6SM FEW020
      AMD NOT SKED 0802/0811=



000
FTUS42 TJSJ 072337
TAFNCM
TAF
TNCM 072337Z 0800/0824 11006KT P6SM FEW021
     FM081200 12008KT P6SM VCSH SCT020
     FM082300 06006KT P6SM FEW020=



000
FTUS42 TJSJ 072337
TAFISX
TAF
TISX 072337Z 0800/0824 VRB04KT P6SM FEW022 SCT040
     FM081300 11013KT P6SM SCT025
     FM082300 06006KT P6SM FEW025=



000
FTUS42 TJSJ 072337
TAFIST
TAF
TIST 072337Z 0800/0824 12010KT P6SM SKC
     FM081300 13012KT P6SM SCT025
     FM082300 09008KT P6SM FEW025=



000
FTUS42 TJSJ 072337
TAFJPS
TAF
TJPS 072337Z 0800/0824 14010G15KT P6SM FEW030
     FM081500 13012G18KT P6SM FEW030
     FM082330 09007KT P6SM FEW030
      AMD NOT SKED TIL 080300=



000
FTUS42 TJSJ 072337
TAFKPK
TAF
TKPK 072337Z 0800/0824 07010KT P6SM SCT018
     FM081200 09010KT P6SM VCSH SCT022
     FM082300 06006KT P6SM FEW020
      AMD NOT SKED 0802/0811=



000
FTUS42 TJSJ 072337
TAFJMZ
TAF
TJMZ 072337Z 0800/0824 00000KT P6SM SKC
     FM081530 20010KT P6SM SCT040
     FM082200 06006KT P6SM SCT025 SCT040
      AMD NOT SKED TIL 081500=



000
FTUS42 TJSJ 072337
TAFISX
TAF
TISX 072337Z 0800/0824 VRB04KT P6SM FEW022 SCT040
     FM081300 11013KT P6SM SCT025
     FM082300 06006KT P6SM FEW025=



000
FTUS42 TJSJ 072337
TAFIST
TAF
TIST 072337Z 0800/0824 12010KT P6SM SKC
     FM081300 13012KT P6SM SCT025
     FM082300 09008KT P6SM FEW025=



000
FTUS42 TJSJ 071744
TAFJMZ
TAF
TJMZ 071744Z 0718/0818 21008KT P6SM VCSH SCT040
     FM072200 00000KT P6SM SKC
     FM081530 20010KT P6SM SCT040
      AMD NOT SKED=



000
FTUS42 TJSJ 071744
TAFNCM
TAF
TNCM 071744Z 0718/0818 13012KT P6SM FEW025
     FM081200 12008KT P6SM VCSH SCT020=



000
FTUS42 TJSJ 071744
TAFJBQ
TAF
TJBQ 071744Z 0718/0818 03010KT P6SM VCSH SCT025
     FM072200 VRB04KT P6SM FEW025
     FM081400 07010KT P6SM SCT035
      AMD NOT SKED 0802/0811=



000
FTUS42 TJSJ 071744
TAFIST
TAF
TIST 071744Z 0718/0818 14015KT P6SM SCT025
     FM072300 12008KT P6SM FEW025
     FM081300 13012KT P6SM SCT025=



000
FTUS42 TJSJ 071744
TAFJSJ
TAF
TJSJ 071744Z 0718/0818 14012KT P6SM VCSH SCT030
     FM072200 VRB05KT P6SM FEW030
     FM081300 08012KT P6SM SCT030=



000
FTUS42 TJSJ 071744
TAFJPS
TAF
TJPS 071744Z 0718/0818 15010G15KT P6SM FEW030 SCT060
     FM072330 05005KT P6SM FEW030
     FM081500 13012G18KT P6SM FEW030 SCT060
      AMD NOT SKED TIL 080300=



000
FTUS42 TJSJ 071744
TAFKPK
TAF
TKPK 071744Z 0718/0818 10012KT P6SM FEW025
     FM081200 09010KT P6SM VCSH SCT022=



000
FTUS42 TJSJ 071744
TAFISX
TAF
TISX 071744Z 0718/0818 12014KT P6SM FEW025
     FM072300 10008KT P6SM FEW030
     FM081300 11013KT P6SM SCT025=



000
FTUS42 TJSJ 071744
TAFJSJ
TAF
TJSJ 071744Z 0718/0818 14012KT P6SM VCSH SCT030
     FM072200 VRB05KT P6SM FEW030
     FM081300 08012KT P6SM SCT030=



000
FTUS42 TJSJ 071744
TAFIST
TAF
TIST 071744Z 0718/0818 14015KT P6SM SCT025
     FM072300 12008KT P6SM FEW025
     FM081300 13012KT P6SM SCT025=



000
FTUS42 TJSJ 071744
TAFKPK
TAF
TKPK 071744Z 0718/0818 10012KT P6SM FEW025
     FM081200 09010KT P6SM VCSH SCT022=



000
FTUS42 TJSJ 071744
TAFJPS
TAF
TJPS 071744Z 0718/0818 15010G15KT P6SM FEW030 SCT060
     FM072330 05005KT P6SM FEW030
     FM081500 13012G18KT P6SM FEW030 SCT060
      AMD NOT SKED TIL 080300=



000
FTUS42 TJSJ 071744
TAFNCM
TAF
TNCM 071744Z 0718/0818 13012KT P6SM FEW025
     FM081200 12008KT P6SM VCSH SCT020=



000
FTUS42 TJSJ 071744
TAFJMZ
TAF
TJMZ 071744Z 0718/0818 21008KT P6SM VCSH SCT040
     FM072200 00000KT P6SM SKC
     FM081530 20010KT P6SM SCT040
      AMD NOT SKED=



000
FTUS42 TJSJ 071744
TAFJBQ
TAF
TJBQ 071744Z 0718/0818 03010KT P6SM VCSH SCT025
     FM072200 VRB04KT P6SM FEW025
     FM081400 07010KT P6SM SCT035
      AMD NOT SKED 0802/0811=



000
FTUS42 TJSJ 071744
TAFISX
TAF
TISX 071744Z 0718/0818 12014KT P6SM FEW025
     FM072300 10008KT P6SM FEW030
     FM081300 11013KT P6SM SCT025=



    US Dept of Commerce
    National Oceanic and Atmospheric Administration
    National Weather Service
    1325 East West Highway
    Silver Spring, MD 20910
    Page Author: NWS Internet Services Team
Disclaimer
Information Quality
Credits
Glossary
Privacy Policy
Freedom of Information Act (FOIA)
About Us
Career Opportunities